createdAt,value
2022-12-25T00:02:23.472Z,14.74
2022-12-25T00:04:51.036Z,14.63
2022-12-25T00:07:18.220Z,14.76
2022-12-25T00:09:45.589Z,14.35
2022-12-25T00:12:13.195Z,14.80
2022-12-25T00:14:40.393Z,14.47
2022-12-25T00:17:07.628Z,14.43
2022-12-25T00:19:35.099Z,14.75
2022-12-25T00:22:02.293Z,14.71
2022-12-25T00:24:29.524Z,14.55
2022-12-25T00:26:57.132Z,14.86
2022-12-25T00:29:24.325Z,14.89
2022-12-25T00:31:52.721Z,14.86
2022-12-25T00:34:20.263Z,14.99
2022-12-25T00:36:49.964Z,14.96
2022-12-25T00:39:17.123Z,14.78
2022-12-25T00:42:03.434Z,14.68
2022-12-25T00:44:30.596Z,14.73
2022-12-25T00:46:58.065Z,14.90
2022-12-25T00:49:25.447Z,14.87
2022-12-25T00:51:52.823Z,14.92
2022-12-25T00:54:20.281Z,14.96
2022-12-25T00:56:47.439Z,15.08
2022-12-25T00:59:14.604Z,15.17
2022-12-25T01:01:42.234Z,15.05
2022-12-25T01:04:12.247Z,15.04
2022-12-25T01:06:39.780Z,15.17
2022-12-25T01:09:26.059Z,15.13
2022-12-25T01:11:53.257Z,15.06
2022-12-25T01:14:20.706Z,15.20
2022-12-25T01:16:47.947Z,15.07
2022-12-25T01:19:15.947Z,15.10
2022-12-25T01:21:43.421Z,14.81
2022-12-25T01:24:10.579Z,14.93
2022-12-25T01:26:37.883Z,15.09
2022-12-25T01:29:06.114Z,15.08
2022-12-25T01:31:33.370Z,15.24
2022-12-25T01:34:00.594Z,15.30
2022-12-25T01:36:28.076Z,14.99
2022-12-25T01:38:55.279Z,14.99
2022-12-25T01:41:23.299Z,15.11
2022-12-25T01:43:59.628Z,15.16
2022-12-25T01:46:26.818Z,15.10
2022-12-25T01:48:54.471Z,14.70
2022-12-25T01:51:23.108Z,14.65
2022-12-25T01:53:50.453Z,14.52
2022-12-25T01:56:17.891Z,14.95
2022-12-25T01:58:45.155Z,15.05
2022-12-25T02:01:12.631Z,14.99
2022-12-25T02:03:42.480Z,15.17
2022-12-25T02:06:10.029Z,15.06
2022-12-25T02:08:37.264Z,15.17
2022-12-25T02:11:04.784Z,15.00
2022-12-25T02:13:31.963Z,14.64
2022-12-25T02:16:28.779Z,14.96
2022-12-25T02:19:00.847Z,15.01
2022-12-25T02:21:27.969Z,14.98
2022-12-25T02:24:14.315Z,14.71
2022-12-25T02:26:41.521Z,14.83
2022-12-25T02:29:17.868Z,14.69
2022-12-25T02:31:47.304Z,14.44
2022-12-25T02:34:14.769Z,14.87
2022-12-25T02:36:44.700Z,14.97
2022-12-25T02:39:33.209Z,14.86
2022-12-25T02:42:01.605Z,15.11
2022-12-25T02:44:47.488Z,15.27
2022-12-25T02:47:33.778Z,15.21
2022-12-25T02:50:20.926Z,14.81
2022-12-25T02:53:07.149Z,15.02
2022-12-25T02:55:54.725Z,15.02
2022-12-25T02:58:40.908Z,14.91
2022-12-25T03:01:37.260Z,14.70
2022-12-25T03:04:30.525Z,14.75
2022-12-25T03:07:03.850Z,14.83
2022-12-25T03:09:52.762Z,14.68
2022-12-25T03:12:39.196Z,14.72
2022-12-25T03:15:26.083Z,14.78
2022-12-25T03:17:53.293Z,14.97
2022-12-25T03:20:39.419Z,14.76
2022-12-25T03:23:25.439Z,14.98
2022-12-25T03:26:11.831Z,14.44
2022-12-25T03:28:39.005Z,14.82
2022-12-25T03:31:18.438Z,14.92
2022-12-25T03:34:13.648Z,14.99
2022-12-25T03:37:04.090Z,15.03
2022-12-25T03:39:49.530Z,14.86
2022-12-25T03:42:37.070Z,14.96
2022-12-25T03:45:28.213Z,14.83
2022-12-25T03:48:28.300Z,14.75
2022-12-25T03:51:19.138Z,14.88
2022-12-25T03:54:06.874Z,14.88
2022-12-25T03:56:52.773Z,14.86
2022-12-25T03:59:39.566Z,14.67
2022-12-25T04:02:25.563Z,14.88
2022-12-25T04:05:11.850Z,15.05
2022-12-25T04:07:57.450Z,14.91
2022-12-25T04:10:43.476Z,14.83
2022-12-25T04:13:29.358Z,14.93
2022-12-25T04:16:15.709Z,14.88
2022-12-25T04:19:01.536Z,15.07
2022-12-25T04:21:47.752Z,15.28
2022-12-25T04:24:33.637Z,15.25
2022-12-25T04:27:20.063Z,15.00
2022-12-25T04:30:05.659Z,15.23
2022-12-25T04:32:51.569Z,15.08
2022-12-25T04:35:37.392Z,15.05
2022-12-25T04:38:04.839Z,15.22
2022-12-25T04:40:31.995Z,14.96
2022-12-25T04:42:59.185Z,15.19
2022-12-25T04:45:26.633Z,15.24
2022-12-25T04:47:53.802Z,15.06
2022-12-25T04:50:20.934Z,15.02
2022-12-25T04:52:48.436Z,15.21
2022-12-25T04:55:15.632Z,15.12
2022-12-25T04:57:42.803Z,15.15
2022-12-25T05:00:10.541Z,15.03
2022-12-25T05:02:37.808Z,15.05
2022-12-25T05:05:05.245Z,14.97
2022-12-25T05:07:32.895Z,14.98
2022-12-25T05:10:00.084Z,14.96
2022-12-25T05:12:27.281Z,15.03
2022-12-25T05:14:54.730Z,14.91
2022-12-25T05:17:21.919Z,14.98
2022-12-25T05:19:49.077Z,15.22
2022-12-25T05:22:16.528Z,14.59
2022-12-25T05:24:43.700Z,14.83
2022-12-25T05:27:10.862Z,14.66
2022-12-25T05:29:38.310Z,14.95
2022-12-25T05:32:05.509Z,14.55
2022-12-25T05:34:32.772Z,14.58
2022-12-25T05:37:00.224Z,14.82
2022-12-25T05:39:27.472Z,14.61
2022-12-25T05:41:54.629Z,14.78
2022-12-25T05:44:22.088Z,14.94
2022-12-25T05:46:49.332Z,14.89
2022-12-25T05:49:16.595Z,14.83
2022-12-25T05:51:44.074Z,14.66
2022-12-25T05:54:11.274Z,14.82
2022-12-25T05:56:38.643Z,14.88
2022-12-25T05:59:06.135Z,14.70
2022-12-25T06:01:33.381Z,14.74
2022-12-25T06:04:00.970Z,14.46
2022-12-25T06:06:28.385Z,14.80
2022-12-25T06:08:56.022Z,14.33
2022-12-25T06:11:23.530Z,14.71
2022-12-25T06:13:51.753Z,14.77
2022-12-25T06:16:19.059Z,14.57
2022-12-25T06:18:47.493Z,14.58
2022-12-25T06:21:15.014Z,14.87
2022-12-25T06:23:43.350Z,14.82
2022-12-25T06:26:11.964Z,14.79
2022-12-25T06:28:39.161Z,14.81
2022-12-25T06:31:11.014Z,14.73
2022-12-25T06:33:39.058Z,14.54
2022-12-25T06:36:07.446Z,14.66
2022-12-25T06:38:35.192Z,14.37
2022-12-25T06:41:03.832Z,14.40
2022-12-25T06:43:30.987Z,14.47
2022-12-25T06:46:01.891Z,14.46
2022-12-25T06:48:29.359Z,14.27
2022-12-25T06:50:59.078Z,14.48
2022-12-25T06:53:26.312Z,14.59
2022-12-25T06:55:53.752Z,14.63
2022-12-25T06:58:20.983Z,14.48
2022-12-25T07:00:48.245Z,14.07
2022-12-25T07:03:16.234Z,14.25
2022-12-25T07:05:44.924Z,14.16
2022-12-25T07:08:12.124Z,13.98
2022-12-25T07:10:39.660Z,14.07
2022-12-25T07:13:06.849Z,14.15
2022-12-25T07:15:33.996Z,14.44
2022-12-25T07:18:01.824Z,14.17
2022-12-25T07:20:30.076Z,14.31
2022-12-25T07:22:57.245Z,14.30
2022-12-25T07:25:24.687Z,14.32
2022-12-25T07:27:51.855Z,14.48
2022-12-25T07:30:19.109Z,14.14
2022-12-25T07:32:50.134Z,13.07
2022-12-25T07:35:17.556Z,13.46
2022-12-25T07:37:44.732Z,13.96
2022-12-25T07:40:12.805Z,14.10
2022-12-25T07:42:39.996Z,14.10
2022-12-25T07:45:07.393Z,14.51
2022-12-25T07:47:34.829Z,14.52
2022-12-25T07:50:02.032Z,14.58
2022-12-25T07:52:29.217Z,14.63
2022-12-25T07:54:56.729Z,14.76
2022-12-25T07:57:23.887Z,14.64
2022-12-25T07:59:51.068Z,14.56
2022-12-25T08:02:18.749Z,14.56
2022-12-25T08:04:46.274Z,14.36
2022-12-25T08:07:14.084Z,14.43
2022-12-25T08:09:41.266Z,14.38
2022-12-25T08:12:08.730Z,14.28
2022-12-25T08:14:35.904Z,13.84
2022-12-25T08:17:03.107Z,13.89
2022-12-25T08:19:30.641Z,13.67
2022-12-25T08:21:57.815Z,13.80
2022-12-25T08:24:25.016Z,13.73
2022-12-25T08:26:52.465Z,13.99
2022-12-25T08:29:19.636Z,14.08
2022-12-25T08:31:47.022Z,14.05
2022-12-25T08:34:15.042Z,14.07
2022-12-25T08:36:42.278Z,14.10
2022-12-25T08:39:09.444Z,14.26
2022-12-25T08:41:37.003Z,14.24
2022-12-25T08:44:04.774Z,14.01
2022-12-25T08:46:32.021Z,14.11
2022-12-25T08:48:59.513Z,14.42
2022-12-25T08:51:26.714Z,14.44
2022-12-25T08:53:55.911Z,14.67
2022-12-25T08:56:30.763Z,14.99
2022-12-25T08:58:58.144Z,14.65
2022-12-25T09:01:25.883Z,14.48
2022-12-25T09:03:53.146Z,14.55
2022-12-25T09:06:20.415Z,14.57
2022-12-25T09:08:49.648Z,14.69
2022-12-25T09:11:18.456Z,14.57
2022-12-25T09:13:45.944Z,14.51
2022-12-25T09:16:15.027Z,14.75
2022-12-25T09:18:42.287Z,14.81
2022-12-25T09:21:10.476Z,14.62
2022-12-25T09:23:37.929Z,14.53
2022-12-25T09:26:05.894Z,14.44
2022-12-25T09:28:33.136Z,14.00
2022-12-25T09:31:00.774Z,14.54
2022-12-25T09:33:28.045Z,14.50
2022-12-25T09:35:55.980Z,15.04
2022-12-25T09:38:23.485Z,14.89
2022-12-25T09:41:09.152Z,15.06
2022-12-25T09:43:41.427Z,15.16
2022-12-25T09:46:09.163Z,15.36
2022-12-25T09:48:36.673Z,15.29
2022-12-25T09:51:09.220Z,15.13
2022-12-25T09:53:40.699Z,15.11
2022-12-25T09:56:12.913Z,15.06
2022-12-25T09:58:41.419Z,14.57
2022-12-25T10:01:16.153Z,14.88
2022-12-25T10:03:49.877Z,15.31
2022-12-25T10:06:17.248Z,15.24
2022-12-25T10:09:01.229Z,15.44
2022-12-25T10:11:54.960Z,14.99
2022-12-25T10:14:25.258Z,15.53
2022-12-25T10:17:04.737Z,16.02
2022-12-25T10:19:34.311Z,16.02
2022-12-25T10:22:02.558Z,16.19
2022-12-25T10:24:37.074Z,16.47
2022-12-25T10:27:07.400Z,16.53
2022-12-25T10:29:34.947Z,16.30
2022-12-25T10:32:02.114Z,16.24
2022-12-25T10:34:29.534Z,16.54
2022-12-25T10:36:56.723Z,16.36
2022-12-25T10:39:24.922Z,16.37
2022-12-25T10:42:08.857Z,16.46
2022-12-25T10:44:36.406Z,16.56
2022-12-25T10:47:04.164Z,16.70
2022-12-25T10:49:32.412Z,16.67
2022-12-25T10:51:59.687Z,16.76
2022-12-25T10:54:27.156Z,16.80
2022-12-25T10:57:01.590Z,16.79
2022-12-25T10:59:30.066Z,17.15
2022-12-25T11:02:03.522Z,17.03
2022-12-25T11:04:33.285Z,16.78
2022-12-25T11:07:02.031Z,16.79
2022-12-25T11:09:29.214Z,16.88
2022-12-25T11:11:56.799Z,16.85
2022-12-25T11:14:24.021Z,17.03
2022-12-25T11:16:51.244Z,17.16
2022-12-25T11:19:28.970Z,17.37
2022-12-25T11:22:00.233Z,17.24
2022-12-25T11:24:29.016Z,17.19
2022-12-25T11:26:57.449Z,16.92
2022-12-25T11:29:24.665Z,17.29
2022-12-25T11:31:52.491Z,17.40
2022-12-25T11:34:32.845Z,17.26
2022-12-25T11:37:00.345Z,17.29
2022-12-25T11:39:32.032Z,17.25
2022-12-25T11:42:07.126Z,17.28
2022-12-25T11:44:39.012Z,17.41
2022-12-25T11:47:12.854Z,16.77
2022-12-25T11:49:49.715Z,16.80
2022-12-25T11:52:17.826Z,17.00
2022-12-25T11:54:48.041Z,16.86
2022-12-25T11:57:15.330Z,16.53
2022-12-25T11:59:50.716Z,16.75
2022-12-25T12:02:26.109Z,16.74
2022-12-25T12:04:57.477Z,16.96
2022-12-25T12:07:25.984Z,17.17
2022-12-25T12:10:12.255Z,17.42
2022-12-25T12:12:48.321Z,17.00
2022-12-25T12:15:19.615Z,16.95
2022-12-25T12:17:46.794Z,17.11
2022-12-25T12:20:23.411Z,17.07
2022-12-25T12:22:51.329Z,16.96
2022-12-25T12:25:18.688Z,17.63
2022-12-25T12:27:45.863Z,17.51
2022-12-25T12:30:27.185Z,17.38
2022-12-25T12:32:59.884Z,17.73
2022-12-25T12:35:27.411Z,17.67
2022-12-25T12:37:58.518Z,17.25
2022-12-25T12:40:37.856Z,17.77
2022-12-25T12:43:05.525Z,17.85
2022-12-25T12:45:34.142Z,17.14
2022-12-25T12:48:01.464Z,17.80
2022-12-25T12:50:36.362Z,17.86
2022-12-25T12:53:21.893Z,17.74
2022-12-25T12:55:49.713Z,17.62
2022-12-25T12:58:35.618Z,17.75
2022-12-25T13:01:22.214Z,17.92
2022-12-25T13:04:18.995Z,18.19
2022-12-25T13:06:47.839Z,17.00
2022-12-25T13:09:14.994Z,17.86
2022-12-25T13:11:42.621Z,18.03
2022-12-25T13:14:18.133Z,18.31
2022-12-25T13:16:45.887Z,18.47
2022-12-25T13:19:18.538Z,18.61
2022-12-25T13:21:51.566Z,18.64
2022-12-25T13:24:20.786Z,18.49
2022-12-25T13:26:48.078Z,17.63
2022-12-25T13:29:33.459Z,18.10
2022-12-25T13:32:01.573Z,18.48
2022-12-25T13:34:32.925Z,18.45
2022-12-25T13:37:00.927Z,18.63
2022-12-25T13:39:28.137Z,18.21
2022-12-25T13:42:10.059Z,18.17
2022-12-25T13:44:37.529Z,18.25
2022-12-25T13:47:24.448Z,17.92
2022-12-25T13:49:53.011Z,18.13
2022-12-25T13:52:21.593Z,18.25
2022-12-25T13:54:57.051Z,18.22
2022-12-25T13:57:25.778Z,17.92
2022-12-25T13:59:52.994Z,18.04
2022-12-25T14:02:20.815Z,17.53
2022-12-25T14:04:48.425Z,17.78
2022-12-25T14:07:16.243Z,17.39
2022-12-25T14:09:43.401Z,17.40
2022-12-25T14:12:15.747Z,17.44
2022-12-25T14:14:46.195Z,17.35
2022-12-25T14:17:13.724Z,17.59
2022-12-25T14:19:41.059Z,17.37
2022-12-25T14:22:11.596Z,17.60
2022-12-25T14:24:39.633Z,17.35
2022-12-25T14:27:07.603Z,17.50
2022-12-25T14:29:36.654Z,16.95
2022-12-25T14:32:05.199Z,17.07
2022-12-25T14:34:32.369Z,17.33
2022-12-25T14:36:59.608Z,17.31
2022-12-25T14:39:35.693Z,17.15
2022-12-25T14:42:12.368Z,17.25
2022-12-25T14:44:40.287Z,17.14
2022-12-25T14:47:10.517Z,17.41
2022-12-25T14:49:38.118Z,17.36
2022-12-25T14:52:24.226Z,17.45
2022-12-25T14:54:54.143Z,17.36
2022-12-25T14:57:28.949Z,17.24
2022-12-25T14:59:56.911Z,17.23
2022-12-25T15:02:24.492Z,17.35
2022-12-25T15:04:51.757Z,17.05
2022-12-25T15:07:25.144Z,16.94
2022-12-25T15:10:10.486Z,16.76
2022-12-25T15:12:39.707Z,16.49
2022-12-25T15:15:07.360Z,16.76
2022-12-25T15:17:34.512Z,16.86
2022-12-25T15:20:01.750Z,16.75
2022-12-25T15:22:47.609Z,16.95
2022-12-25T15:25:17.846Z,16.92
2022-12-25T15:27:45.308Z,16.56
2022-12-25T15:30:12.859Z,16.46
2022-12-25T15:32:40.072Z,16.67
2022-12-25T15:35:07.868Z,16.16
2022-12-25T15:37:35.027Z,16.38
2022-12-25T15:40:02.517Z,16.32
2022-12-25T15:42:30.872Z,16.06
2022-12-25T15:44:58.087Z,16.04
2022-12-25T15:47:25.963Z,16.08
2022-12-25T15:49:53.453Z,15.77
2022-12-25T15:52:20.610Z,15.74
2022-12-25T15:54:47.905Z,15.90
2022-12-25T15:57:20.485Z,15.98
2022-12-25T15:59:49.775Z,16.15
2022-12-25T16:02:18.572Z,16.00
2022-12-25T16:04:46.296Z,15.84
2022-12-25T16:07:14.265Z,15.84
2022-12-25T16:09:41.479Z,16.30
2022-12-25T16:12:08.941Z,16.28
2022-12-25T16:14:36.154Z,15.90
2022-12-25T16:17:03.749Z,16.36
2022-12-25T16:19:31.469Z,16.02
2022-12-25T16:21:58.705Z,16.49
2022-12-25T16:24:25.894Z,16.25
2022-12-25T16:26:53.361Z,16.26
2022-12-25T16:29:20.523Z,16.09
2022-12-25T16:31:47.780Z,16.47
2022-12-25T16:34:15.226Z,16.35
2022-12-25T16:36:42.411Z,16.43
2022-12-25T16:39:09.574Z,16.01
2022-12-25T16:41:37.031Z,15.87
2022-12-25T16:44:09.228Z,15.98
2022-12-25T16:46:37.500Z,16.30
2022-12-25T16:49:04.950Z,16.43
2022-12-25T16:51:32.123Z,16.63
2022-12-25T16:53:59.637Z,16.05
2022-12-25T16:56:28.531Z,15.99
2022-12-25T16:58:56.617Z,15.97
2022-12-25T17:01:24.385Z,16.11
2022-12-25T17:03:51.957Z,16.32
2022-12-25T17:06:20.739Z,16.35
2022-12-25T17:08:48.636Z,16.28
2022-12-25T17:11:19.137Z,16.22
2022-12-25T17:13:47.120Z,16.12
2022-12-25T17:16:15.344Z,16.02
2022-12-25T17:18:42.791Z,16.29
2022-12-25T17:21:10.329Z,16.00
2022-12-25T17:23:38.341Z,16.23
2022-12-25T17:26:05.879Z,15.60
2022-12-25T17:28:36.074Z,16.15
2022-12-25T17:31:04.390Z,16.47
2022-12-25T17:33:31.658Z,16.29
2022-12-25T17:36:05.902Z,16.35
2022-12-25T17:38:33.715Z,16.02
2022-12-25T17:41:01.566Z,15.36
2022-12-25T17:43:28.862Z,15.41
2022-12-25T17:45:56.341Z,15.99
2022-12-25T17:48:23.528Z,15.68
2022-12-25T17:50:51.417Z,14.86
2022-12-25T17:53:18.848Z,15.80
2022-12-25T17:55:46.027Z,15.10
2022-12-25T17:58:13.241Z,15.53
2022-12-25T18:00:40.720Z,15.62
2022-12-25T18:03:11.451Z,15.75
2022-12-25T18:05:39.320Z,15.48
2022-12-25T18:08:06.499Z,15.57
2022-12-25T18:10:37.623Z,15.44
2022-12-25T18:13:04.835Z,15.40
2022-12-25T18:15:31.991Z,15.09
2022-12-25T18:17:59.665Z,15.22
2022-12-25T18:20:28.067Z,15.14
2022-12-25T18:22:55.346Z,15.18
2022-12-25T18:25:22.877Z,14.85
2022-12-25T18:27:51.619Z,15.08
2022-12-25T18:30:20.317Z,15.07
2022-12-25T18:32:47.841Z,14.74
2022-12-25T18:35:15.061Z,14.79
2022-12-25T18:37:42.949Z,15.53
2022-12-25T18:40:10.627Z,15.11
2022-12-25T18:42:41.072Z,15.27
2022-12-25T18:45:10.108Z,15.46
2022-12-25T18:47:38.802Z,15.20
2022-12-25T18:50:06.521Z,15.01
2022-12-25T18:52:48.459Z,15.36
2022-12-25T18:55:18.887Z,14.32
2022-12-25T18:57:46.186Z,14.53
2022-12-25T19:00:13.497Z,14.93
2022-12-25T19:02:42.244Z,14.15
2022-12-25T19:05:09.668Z,14.73
2022-12-25T19:07:37.170Z,13.86
2022-12-25T19:10:05.287Z,14.69
2022-12-25T19:12:33.174Z,14.74
2022-12-25T19:15:00.685Z,14.78
2022-12-25T19:17:31.855Z,14.10
2022-12-25T19:19:59.510Z,14.63
2022-12-25T19:22:26.775Z,14.83
2022-12-25T19:24:54.315Z,14.82
2022-12-25T19:27:21.498Z,14.28
2022-12-25T19:29:48.778Z,15.16
2022-12-25T19:32:16.357Z,15.07
2022-12-25T19:34:43.887Z,15.59
2022-12-25T19:37:11.290Z,15.67
2022-12-25T19:39:39.869Z,15.29
2022-12-25T19:42:07.113Z,15.34
2022-12-25T19:44:34.964Z,14.46
2022-12-25T19:47:02.691Z,14.92
2022-12-25T19:49:31.373Z,15.76
2022-12-25T19:51:58.677Z,15.93
2022-12-25T19:54:26.400Z,15.43
2022-12-25T19:56:53.816Z,15.36
2022-12-25T19:59:21.182Z,15.68
2022-12-25T20:01:48.925Z,15.20
2022-12-25T20:04:18.262Z,14.99
2022-12-25T20:06:46.110Z,15.41
2022-12-25T20:09:14.507Z,14.50
2022-12-25T20:11:43.161Z,15.33
2022-12-25T20:14:11.653Z,15.28
2022-12-25T20:16:39.524Z,14.74
2022-12-25T20:19:07.471Z,14.97
2022-12-25T20:21:34.982Z,14.66
2022-12-25T20:24:02.192Z,14.57
2022-12-25T20:26:30.747Z,14.16
2022-12-25T20:28:58.533Z,14.47
2022-12-25T20:31:32.158Z,13.76
2022-12-25T20:34:01.178Z,14.23
2022-12-25T20:36:34.618Z,13.60
2022-12-25T20:39:05.420Z,13.52
2022-12-25T20:41:32.825Z,14.39
2022-12-25T20:44:03.541Z,13.61
2022-12-25T20:46:31.566Z,14.60
2022-12-25T20:48:58.869Z,13.99
2022-12-25T20:51:26.284Z,13.72
2022-12-25T20:53:54.239Z,13.31
2022-12-25T20:56:22.688Z,13.93
2022-12-25T20:58:57.108Z,14.04
2022-12-25T21:01:24.829Z,14.04
2022-12-25T21:03:52.720Z,14.07
2022-12-25T21:06:20.192Z,13.57
2022-12-25T21:08:47.681Z,13.58
2022-12-25T21:11:15.688Z,13.60
2022-12-25T21:13:43.319Z,13.84
2022-12-25T21:16:12.358Z,13.33
2022-12-25T21:18:40.063Z,13.66
2022-12-25T21:21:07.802Z,14.58
2022-12-25T21:23:35.949Z,14.46
2022-12-25T21:26:13.088Z,14.25
2022-12-25T21:28:40.624Z,14.18
2022-12-25T21:31:10.205Z,14.99
2022-12-25T21:33:53.042Z,14.22
2022-12-25T21:36:22.211Z,14.26
2022-12-25T21:38:56.668Z,14.71
2022-12-25T21:41:24.319Z,14.94
2022-12-25T21:43:52.403Z,15.06
2022-12-25T21:46:19.816Z,15.28
2022-12-25T21:48:47.592Z,15.04
2022-12-25T21:51:35.135Z,13.66
2022-12-25T21:54:02.832Z,14.25
2022-12-25T21:56:39.770Z,13.87
2022-12-25T21:59:11.863Z,14.50
2022-12-25T22:01:39.186Z,14.83
2022-12-25T22:04:07.668Z,15.33
2022-12-25T22:06:53.995Z,15.15
2022-12-25T22:09:21.681Z,15.25
2022-12-25T22:12:08.505Z,15.58
2022-12-25T22:14:54.854Z,16.24
2022-12-25T22:17:45.084Z,14.72
2022-12-25T22:20:18.087Z,15.61
2022-12-25T22:22:45.365Z,15.75
2022-12-25T22:25:13.288Z,16.24
2022-12-25T22:27:40.856Z,16.57
2022-12-25T22:30:09.776Z,15.94
2022-12-25T22:32:37.360Z,16.83
2022-12-25T22:35:04.811Z,15.56
2022-12-25T22:37:32.089Z,15.39
2022-12-25T22:40:01.297Z,15.14
2022-12-25T22:42:28.758Z,14.91
2022-12-25T22:44:55.955Z,15.18
2022-12-25T22:47:24.112Z,15.30
2022-12-25T22:49:51.259Z,14.59
2022-12-25T22:52:18.484Z,13.84
2022-12-25T22:54:45.924Z,14.16
2022-12-25T22:57:13.161Z,14.47
2022-12-25T22:59:40.386Z,15.08
2022-12-25T23:02:08.203Z,14.47
2022-12-25T23:04:35.602Z,15.46
2022-12-25T23:07:02.829Z,14.41
2022-12-25T23:09:30.460Z,13.65
2022-12-25T23:11:58.236Z,13.51
2022-12-25T23:14:40.917Z,14.02
2022-12-25T23:17:30.803Z,14.18
2022-12-25T23:20:17.486Z,13.36
2022-12-25T23:23:03.753Z,13.76
2022-12-25T23:25:49.716Z,14.34
2022-12-25T23:28:40.216Z,15.02
2022-12-25T23:31:09.476Z,15.68
2022-12-25T23:33:37.016Z,14.76
2022-12-25T23:36:04.307Z,14.15
2022-12-25T23:38:31.830Z,14.80
2022-12-25T23:41:01.963Z,14.96
2022-12-25T23:43:29.180Z,14.60
2022-12-25T23:45:56.422Z,15.17
2022-12-25T23:48:23.853Z,14.93
2022-12-25T23:50:51.008Z,14.67
2022-12-25T23:53:18.177Z,14.20
2022-12-25T23:55:50.069Z,14.85
2022-12-25T23:58:20.670Z,15.11
